Time;durP1;ratioP1;P1;durP2;ratioP2;P2;SDS_P1;SDS_P2;PMS_P1;PMS_P2;Temp;Humidity;BMP_temperature;BMP_pressure;BME280_temperature;BME280_humidity;BME280_pressure;Samples;Min_cycle;Max_cycle;Signal;HPM_P1;HPM_P2
2021/04/27 00:02:23;;;;;;;2.42;2.20;;;14.70;76.10;;;;;;5100332;28;20189;-75
2021/04/27 00:04:49;;;;;;;2.53;2.42;;;14.70;76.30;;;;;;5099878;28;20181;-75
2021/04/27 00:07:14;;;;;;;2.90;2.42;;;14.60;76.30;;;;;;5094841;28;20191;-76
2021/04/27 00:09:41;;;;;;;2.50;2.20;;;14.50;76.90;;;;;;5099099;28;20183;-76
2021/04/27 00:12:07;;;;;;;2.20;2.10;;;14.50;77.30;;;;;;5079991;28;20319;-76
2021/04/27 00:14:34;;;;;;;1.75;1.73;;;14.50;77.00;;;;;;5103491;28;20221;-76
2021/04/27 00:17:00;;;;;;;1.98;1.98;;;14.50;76.70;;;;;;5100358;28;20186;-75
2021/04/27 00:19:25;;;;;;;2.30;2.20;;;14.50;76.70;;;;;;5097590;28;20181;-76
2021/04/27 00:21:51;;;;;;;2.38;2.33;;;14.40;77.40;;;;;;5097292;28;20174;-75
2021/04/27 00:24:17;;;;;;;1.90;1.80;;;14.40;77.90;;;;;;5098132;28;20183;-76
2021/04/27 00:26:42;;;;;;;2.72;2.53;;;14.30;77.40;;;;;;5098254;28;20218;-76
2021/04/27 00:29:09;;;;;;;2.17;2.00;;;14.30;77.40;;;;;;5076671;28;20276;-76
2021/04/27 00:31:35;;;;;;;3.55;1.70;;;14.30;77.20;;;;;;5075932;28;20370;-76
2021/04/27 00:34:00;;;;;;;1.48;1.45;;;14.30;76.00;;;;;;5092806;28;20637;-75
2021/04/27 00:36:27;;;;;;;1.17;1.17;;;14.20;75.80;;;;;;5097604;28;20178;-76
2021/04/27 00:38:54;;;;;;;1.75;1.65;;;14.30;75.80;;;;;;5096828;28;20190;-76
2021/04/27 00:41:20;;;;;;;2.25;1.60;;;14.30;76.10;;;;;;5097893;28;20625;-76
2021/04/27 00:43:46;;;;;;;2.97;1.15;;;14.30;75.50;;;;;;5097962;28;20814;-76
2021/04/27 00:46:12;;;;;;;2.05;1.60;;;14.30;75.50;;;;;;5097130;28;20202;-75
2021/04/27 00:48:37;;;;;;;1.52;1.42;;;14.30;74.80;;;;;;5096385;28;20186;-76
2021/04/27 00:51:04;;;;;;;1.85;1.75;;;14.30;75.00;;;;;;5099837;28;20194;-75
2021/04/27 00:53:30;;;;;;;1.77;1.67;;;14.30;75.20;;;;;;5094452;28;20214;-75
2021/04/27 00:55:56;;;;;;;1.70;1.60;;;14.30;74.60;;;;;;5097594;28;20332;-75
2021/04/27 00:58:22;;;;;;;1.52;1.42;;;14.30;75.10;;;;;;5097003;28;20664;-76
2021/04/27 01:00:49;;;;;;;2.15;1.50;;;14.30;74.90;;;;;;5096025;28;20261;-76
2021/04/27 01:03:15;;;;;;;1.65;1.60;;;14.30;74.90;;;;;;5096521;28;20186;-75
2021/04/27 01:05:41;;;;;;;2.10;1.98;;;14.30;75.10;;;;;;5096880;28;20204;-76
2021/04/27 01:08:11;;;;;;;1.33;1.33;;;14.30;74.60;;;;;;5092930;28;20185;-75
2021/04/27 01:10:49;;;;;;;3.15;1.23;;;14.30;75.70;;;;;;5095077;28;20179;-75
2021/04/27 01:13:39;;;;;;;5.32;1.50;;;14.30;74.70;;;;;;5094341;28;20277;-76
2021/04/27 01:16:08;;;;;;;2.03;1.25;;;14.30;75.10;;;;;;5096984;28;20339;-76
2021/04/27 01:18:36;;;;;;;1.48;1.30;;;14.30;76.50;;;;;;5096609;28;20187;-76
2021/04/27 01:21:04;;;;;;;1.17;1.17;;;14.20;75.50;;;;;;5090839;28;20175;-75
2021/04/27 01:24:09;;;;;;;1.73;1.38;;;14.10;75.30;;;;;;5090474;28;20608;-74
2021/04/27 01:26:50;;;;;;;1.20;1.20;;;14.10;75.10;;;;;;5100956;28;20180;-77
2021/04/27 01:29:19;;;;;;;1.00;1.00;;;14.00;74.80;;;;;;5095447;28;20197;-76
2021/04/27 01:31:46;;;;;;;1.10;1.10;;;14.00;74.60;;;;;;5077241;28;20229;-76
2021/04/27 01:34:16;;;;;;;0.88;0.85;;;14.00;75.10;;;;;;5092472;28;20806;-76
2021/04/27 01:36:42;;;;;;;2.28;1.10;;;14.00;75.30;;;;;;5091860;28;20210;-77
2021/04/27 01:39:08;;;;;;;1.02;1.02;;;13.90;75.00;;;;;;5095825;28;20181;-76
2021/04/27 01:41:36;;;;;;;0.93;0.93;;;13.90;75.40;;;;;;5096112;28;20173;-76
2021/04/27 01:44:04;;;;;;;2.40;0.90;;;13.90;75.00;;;;;;5095702;28;20186;-75
2021/04/27 01:46:31;;;;;;;1.02;1.02;;;13.90;74.80;;;;;;5095556;28;20249;-76
2021/04/27 01:48:56;;;;;;;2.88;1.13;;;13.80;75.30;;;;;;5095648;28;20264;-76
2021/04/27 01:51:22;;;;;;;1.10;1.10;;;13.80;75.30;;;;;;5095434;28;20326;-76
2021/04/27 01:53:48;;;;;;;1.17;1.17;;;13.80;75.10;;;;;;5091020;28;20206;-76
2021/04/27 01:56:14;;;;;;;1.48;1.38;;;13.80;75.90;;;;;;5097294;28;20181;-76
2021/04/27 01:58:40;;;;;;;1.80;1.20;;;13.80;75.40;;;;;;5094655;28;20197;-76
2021/04/27 02:01:06;;;;;;;1.70;1.30;;;13.80;75.70;;;;;;5094692;28;20189;-76
2021/04/27 02:03:41;;;;;;;1.02;1.02;;;13.70;75.60;;;;;;5100148;28;20182;-78
2021/04/27 02:06:08;;;;;;;0.82;0.82;;;13.80;75.40;;;;;;5100061;28;20570;-77
2021/04/27 02:08:34;;;;;;;3.30;0.95;;;13.80;76.00;;;;;;5090166;28;20177;-77
2021/04/27 02:11:00;;;;;;;2.63;1.10;;;13.80;75.50;;;;;;5103552;28;20174;-78
2021/04/27 02:13:26;;;;;;;2.30;1.17;;;13.80;75.70;;;;;;5094791;28;20241;-76
2021/04/27 02:15:52;;;;;;;1.42;1.30;;;13.80;75.60;;;;;;5096032;28;20189;-76
2021/04/27 02:18:41;;;;;;;1.00;1.00;;;13.80;75.70;;;;;;5102125;28;20181;-76
2021/04/27 02:21:07;;;;;;;1.30;1.20;;;13.90;75.50;;;;;;5100527;28;20182;-77
2021/04/27 02:23:34;;;;;;;1.20;1.10;;;13.80;76.00;;;;;;5097552;28;20185;-77
2021/04/27 02:26:01;;;;;;;3.90;1.33;;;13.90;76.40;;;;;;5100170;28;21747;-76
2021/04/27 02:28:27;;;;;;;1.88;1.77;;;13.80;76.00;;;;;;5098132;28;20177;-76
2021/04/27 02:30:54;;;;;;;1.50;1.40;;;13.80;75.40;;;;;;5103280;28;20257;-76
2021/04/27 02:33:21;;;;;;;3.70;1.58;;;13.80;76.60;;;;;;5096649;28;20623;-77
2021/04/27 02:35:49;;;;;;;1.67;1.60;;;13.70;77.20;;;;;;5103190;28;20264;-77
2021/04/27 02:38:21;;;;;;;2.42;1.25;;;13.60;77.60;;;;;;5104199;28;20205;-78
2021/04/27 02:40:54;;;;;;;1.48;1.38;;;13.60;78.10;;;;;;5099202;28;20569;-78
2021/04/27 02:43:20;;;;;;;1.60;1.50;;;13.60;78.10;;;;;;5107093;28;20261;-77
2021/04/27 02:45:48;;;;;;;1.70;1.60;;;13.60;78.60;;;;;;5089676;28;20188;-77
2021/04/27 02:48:20;;;;;;;1.50;1.40;;;13.50;78.50;;;;;;5106239;28;20193;-77
2021/04/27 02:50:49;;;;;;;1.65;1.55;;;13.50;77.50;;;;;;5100719;28;20173;-77
2021/04/27 02:53:15;;;;;;;1.33;1.33;;;13.50;77.50;;;;;;5106881;28;20271;-76
2021/04/27 02:55:42;;;;;;;1.70;1.60;;;13.50;78.20;;;;;;5101592;28;20174;-77
2021/04/27 02:58:08;;;;;;;1.75;1.27;;;13.50;78.10;;;;;;5106919;28;20234;-77
2021/04/27 03:00:34;;;;;;;1.38;1.38;;;13.50;78.60;;;;;;5103142;28;20189;-76
2021/04/27 03:03:00;;;;;;;1.52;1.45;;;13.50;78.40;;;;;;5106145;28;20184;-76
2021/04/27 03:05:26;;;;;;;1.70;1.38;;;13.50;78.00;;;;;;5104934;28;20178;-77
2021/04/27 03:07:51;;;;;;;1.25;1.20;;;13.60;77.90;;;;;;5103879;28;20260;-77
2021/04/27 03:10:17;;;;;;;2.38;1.73;;;13.60;78.10;;;;;;5103790;28;20181;-78
2021/04/27 03:12:43;;;;;;;1.40;1.30;;;13.50;77.90;;;;;;5101846;28;20300;-76
2021/04/27 03:15:11;;;;;;;2.25;1.40;;;13.50;77.10;;;;;;5105020;28;20708;-77
2021/04/27 03:17:38;;;;;;;1.67;1.58;;;13.50;77.10;;;;;;5098450;28;20212;-77
2021/04/27 03:20:06;;;;;;;1.42;1.30;;;13.50;76.90;;;;;;5106232;28;20677;-77
2021/04/27 03:22:32;;;;;;;1.27;1.13;;;13.50;77.00;;;;;;5095518;28;20189;-77
2021/04/27 03:24:58;;;;;;;1.60;1.50;;;13.50;77.00;;;;;;5101092;28;20182;-77
2021/04/27 03:27:24;;;;;;;1.63;1.50;;;13.50;77.40;;;;;;5103301;28;20256;-76
2021/04/27 03:29:50;;;;;;;1.52;1.42;;;13.50;77.70;;;;;;5104375;28;20279;-77
2021/04/27 03:32:16;;;;;;;1.02;1.00;;;13.40;76.40;;;;;;5100879;28;20193;-77
2021/04/27 03:34:42;;;;;;;1.30;1.30;;;13.50;77.00;;;;;;5102532;28;20700;-76
2021/04/27 03:37:09;;;;;;;1.38;1.38;;;13.40;76.20;;;;;;5104373;28;20177;-78
2021/04/27 03:39:35;;;;;;;1.20;1.20;;;13.50;76.30;;;;;;5077600;28;20194;-78
2021/04/27 03:42:01;;;;;;;1.67;1.58;;;13.50;76.10;;;;;;5099621;28;20260;-78
2021/04/27 03:44:27;;;;;;;1.55;1.55;;;13.50;76.30;;;;;;5105950;28;20273;-77
2021/04/27 03:46:53;;;;;;;1.77;1.77;;;13.50;77.50;;;;;;5105453;28;20185;-78
2021/04/27 03:49:18;;;;;;;1.73;1.73;;;13.50;77.80;;;;;;5104414;28;20723;-78
2021/04/27 03:51:44;;;;;;;1.67;1.58;;;13.50;78.20;;;;;;5102770;28;20182;-77
2021/04/27 03:54:10;;;;;;;2.47;2.17;;;13.40;78.80;;;;;;5101970;28;20213;-78
2021/04/27 03:56:36;;;;;;;2.20;2.10;;;13.40;79.40;;;;;;5100301;28;20186;-77
2021/04/27 03:59:02;;;;;;;2.22;2.15;;;13.40;80.20;;;;;;5097407;28;20177;-77
2021/04/27 04:01:28;;;;;;;2.13;2.00;;;13.40;80.40;;;;;;5099562;28;20181;-78
2021/04/27 04:03:53;;;;;;;1.90;1.80;;;13.50;81.00;;;;;;5100749;28;20194;-77
2021/04/27 04:06:19;;;;;;;2.42;2.33;;;13.50;81.00;;;;;;5100870;28;20213;-77
2021/04/27 04:08:45;;;;;;;2.70;2.05;;;13.50;82.10;;;;;;5098437;28;20192;-78
2021/04/27 04:11:11;;;;;;;2.25;2.03;;;13.50;81.20;;;;;;5084343;28;20864;-76
2021/04/27 04:13:37;;;;;;;3.22;1.95;;;13.50;81.70;;;;;;5106657;28;20205;-76
2021/04/27 04:16:03;;;;;;;2.15;2.00;;;13.50;81.80;;;;;;5105287;28;20182;-76
2021/04/27 04:18:29;;;;;;;2.22;2.13;;;13.50;81.60;;;;;;5101653;28;20239;-78
2021/04/27 04:20:55;;;;;;;2.00;1.90;;;13.50;82.40;;;;;;5104858;28;20177;-75
2021/04/27 04:23:21;;;;;;;3.22;2.40;;;13.50;82.50;;;;;;5116063;28;20192;-77
2021/04/27 04:25:46;;;;;;;4.40;2.67;;;13.50;82.10;;;;;;5128283;28;20185;-77
2021/04/27 04:28:12;;;;;;;2.05;1.95;;;13.50;82.80;;;;;;5129418;28;20339;-78
2021/04/27 04:30:38;;;;;;;3.20;2.95;;;13.50;82.40;;;;;;5127299;28;20359;-78
2021/04/27 04:33:04;;;;;;;2.65;2.55;;;13.50;81.90;;;;;;5123964;28;20589;-77
2021/04/27 04:35:32;;;;;;;3.78;2.83;;;13.60;82.40;;;;;;5126367;28;20188;-78
2021/04/27 04:37:59;;;;;;;4.05;2.70;;;13.60;82.60;;;;;;5121620;28;20251;-77
2021/04/27 04:40:25;;;;;;;2.75;2.30;;;13.70;82.70;;;;;;5123864;28;20387;-77
2021/04/27 04:42:51;;;;;;;2.70;2.53;;;13.70;83.10;;;;;;5121378;28;20188;-76
2021/04/27 04:45:18;;;;;;;2.40;2.30;;;13.70;83.80;;;;;;5116531;28;20252;-76
2021/04/27 04:47:44;;;;;;;2.55;2.45;;;13.70;83.00;;;;;;5104057;28;20306;-77
2021/04/27 04:50:13;;;;;;;2.85;2.70;;;13.60;83.70;;;;;;5107570;28;20264;-75
2021/04/27 04:52:39;;;;;;;2.50;2.30;;;13.50;84.50;;;;;;5089706;28;20264;-76
2021/04/27 04:55:08;;;;;;;3.80;2.72;;;13.30;84.80;;;;;;5105417;28;20182;-76
2021/04/27 04:57:35;;;;;;;3.13;2.92;;;13.20;83.40;;;;;;5109593;28;20185;-76
2021/04/27 05:00:03;;;;;;;3.25;2.88;;;13.20;83.80;;;;;;5106074;28;20233;-76
2021/04/27 05:02:29;;;;;;;3.60;2.90;;;13.20;84.00;;;;;;5086744;28;21009;-75
2021/04/27 05:04:54;;;;;;;3.63;3.35;;;13.20;85.40;;;;;;5090302;28;20185;-73
2021/04/27 05:07:23;;;;;;;3.25;3.05;;;13.10;85.20;;;;;;5085283;28;20174;-74
2021/04/27 05:09:48;;;;;;;3.50;3.13;;;13.10;85.50;;;;;;5092108;28;20269;-75
2021/04/27 05:12:14;;;;;;;5.20;3.25;;;13.00;84.90;;;;;;5089332;28;20189;-73
2021/04/27 05:14:42;;;;;;;3.13;2.92;;;13.10;85.50;;;;;;5079171;28;20207;-73
2021/04/27 05:17:10;;;;;;;3.88;2.88;;;13.10;84.50;;;;;;5096287;28;20736;-73
2021/04/27 05:19:37;;;;;;;3.45;3.00;;;13.20;84.40;;;;;;5085434;28;20669;-74
2021/04/27 05:22:06;;;;;;;4.20;3.47;;;13.30;84.70;;;;;;5097880;28;20958;-74
2021/04/27 05:24:32;;;;;;;3.25;2.95;;;13.40;85.10;;;;;;5093283;28;20250;-73
2021/04/27 05:26:58;;;;;;;4.25;3.67;;;13.40;85.10;;;;;;5101321;28;20193;-73
2021/04/27 05:29:24;;;;;;;3.65;2.70;;;13.40;84.20;;;;;;5095299;28;20182;-73
2021/04/27 05:31:52;;;;;;;3.65;3.42;;;13.40;83.80;;;;;;5096104;28;20189;-74
2021/04/27 05:34:19;;;;;;;6.22;2.97;;;13.40;84.20;;;;;;5097000;28;20205;-77
2021/04/27 05:36:45;;;;;;;3.63;3.40;;;13.50;84.00;;;;;;5095045;28;20255;-73
2021/04/27 05:39:11;;;;;;;4.28;3.38;;;13.60;83.20;;;;;;5090795;28;20188;-77
2021/04/27 05:41:37;;;;;;;5.75;3.05;;;13.60;83.70;;;;;;5095050;28;20177;-76
2021/04/27 05:44:04;;;;;;;3.30;3.05;;;13.70;83.10;;;;;;5077953;28;20190;-74
2021/04/27 05:46:29;;;;;;;2.67;2.47;;;13.80;83.10;;;;;;5096126;28;20178;-76
2021/04/27 05:48:55;;;;;;;5.70;3.00;;;13.90;84.00;;;;;;5095475;28;20738;-72
2021/04/27 05:51:21;;;;;;;2.95;2.65;;;13.90;82.60;;;;;;5075543;28;20186;-74
2021/04/27 05:53:46;;;;;;;2.97;2.67;;;14.00;82.60;;;;;;5094697;28;20221;-72
2021/04/27 05:56:15;;;;;;;2.55;2.42;;;14.10;82.50;;;;;;5097460;28;20193;-71
2021/04/27 05:58:41;;;;;;;3.53;3.22;;;14.20;81.90;;;;;;5093260;28;20169;-72
2021/04/27 06:01:06;;;;;;;4.88;3.55;;;14.30;81.70;;;;;;5097841;28;20187;-72
2021/04/27 06:03:33;;;;;;;2.92;2.70;;;14.30;81.50;;;;;;5077768;28;20190;-71
2021/04/27 06:05:58;;;;;;;2.88;2.67;;;14.30;81.60;;;;;;5079656;28;20193;-71
2021/04/27 06:08:24;;;;;;;2.92;2.80;;;14.40;81.10;;;;;;5094429;28;20186;-72
2021/04/27 06:10:49;;;;;;;4.72;2.88;;;14.40;80.60;;;;;;5095450;28;20216;-71
2021/04/27 06:13:15;;;;;;;3.15;2.83;;;14.50;80.50;;;;;;5096859;28;20682;-72
2021/04/27 06:15:41;;;;;;;2.88;2.67;;;14.50;80.90;;;;;;5097428;28;20185;-72
2021/04/27 06:18:06;;;;;;;2.72;2.50;;;14.60;80.70;;;;;;5093044;28;20178;-72
2021/04/27 06:20:32;;;;;;;4.60;2.67;;;14.70;80.10;;;;;;5102640;28;22280;-71
2021/04/27 06:22:59;;;;;;;2.95;2.75;;;14.80;79.80;;;;;;5094647;28;20213;-72
2021/04/27 06:25:25;;;;;;;3.00;2.58;;;14.90;79.80;;;;;;5094582;28;20182;-72
2021/04/27 06:27:50;;;;;;;2.65;2.45;;;15.00;79.20;;;;;;5097723;28;20262;-70
2021/04/27 06:30:17;;;;;;;2.78;2.22;;;15.00;79.10;;;;;;5095559;28;20607;-72
2021/04/27 06:32:42;;;;;;;3.00;2.80;;;15.10;79.10;;;;;;5094542;28;20635;-72
2021/04/27 06:35:08;;;;;;;7.95;2.85;;;15.20;79.00;;;;;;5094779;28;20189;-72
2021/04/27 06:37:37;;;;;;;2.30;2.20;;;15.30;77.70;;;;;;5091885;28;20194;-70
2021/04/27 06:40:06;;;;;;;4.30;2.53;;;15.30;77.70;;;;;;5098683;28;20647;-72
2021/04/27 06:42:32;;;;;;;3.08;2.88;;;15.40;77.70;;;;;;5092777;28;20182;-72
2021/04/27 06:44:57;;;;;;;3.92;3.33;;;15.50;77.90;;;;;;5075244;28;20192;-73
2021/04/27 06:47:23;;;;;;;2.95;2.75;;;15.70;77.70;;;;;;5078416;28;20624;-72
2021/04/27 06:49:50;;;;;;;3.72;2.97;;;15.80;76.90;;;;;;5093415;28;20200;-71
2021/04/27 06:52:15;;;;;;;5.05;2.70;;;15.80;75.90;;;;;;5094027;28;20190;-71
2021/04/27 06:54:41;;;;;;;3.03;2.70;;;15.80;75.80;;;;;;5094074;28;20207;-71
2021/04/27 06:57:07;;;;;;;2.60;2.40;;;15.80;76.90;;;;;;5094911;28;20595;-73
2021/04/27 06:59:33;;;;;;;3.90;2.38;;;15.90;76.30;;;;;;5094880;28;20300;-73
2021/04/27 07:02:04;;;;;;;2.40;2.28;;;15.90;76.50;;;;;;5098165;28;20234;-72
2021/04/27 07:04:30;;;;;;;3.67;2.80;;;16.00;75.70;;;;;;5096953;28;20177;-71
2021/04/27 07:06:56;;;;;;;5.22;2.55;;;16.10;75.70;;;;;;5097016;28;20224;-71
2021/04/27 07:09:22;;;;;;;3.42;2.50;;;16.20;74.90;;;;;;5096635;28;20182;-72
2021/04/27 07:11:47;;;;;;;7.15;2.35;;;16.20;74.70;;;;;;5095816;28;20742;-73
2021/04/27 07:14:14;;;;;;;2.78;2.67;;;16.20;74.70;;;;;;5100460;28;20240;-72
2021/04/27 07:16:39;;;;;;;2.28;2.15;;;16.20;74.20;;;;;;5101268;28;20210;-72
2021/04/27 07:19:05;;;;;;;2.47;2.35;;;16.20;74.60;;;;;;5101988;28;20717;-72
2021/04/27 07:21:31;;;;;;;4.68;2.45;;;16.30;75.00;;;;;;5098048;28;20193;-72
2021/04/27 07:23:57;;;;;;;2.88;2.28;;;16.40;74.20;;;;;;5105463;28;20197;-72
2021/04/27 07:26:23;;;;;;;3.85;2.10;;;16.50;73.70;;;;;;5105039;28;20263;-72
2021/04/27 07:28:49;;;;;;;3.05;2.33;;;16.70;73.60;;;;;;5098468;28;20189;-72
2021/04/27 07:31:18;;;;;;;5.90;2.90;;;16.80;73.80;;;;;;5080110;28;20187;-72
2021/04/27 07:33:46;;;;;;;2.67;2.15;;;17.00;73.10;;;;;;5098192;28;20206;-72
2021/04/27 07:36:12;;;;;;;2.45;2.35;;;17.20;72.60;;;;;;5095890;28;20229;-72
2021/04/27 07:38:37;;;;;;;2.58;2.38;;;17.30;72.80;;;;;;5095041;28;20175;-72
2021/04/27 07:41:03;;;;;;;3.30;2.50;;;17.50;72.40;;;;;;5101753;28;20238;-73
2021/04/27 07:43:29;;;;;;;3.17;2.38;;;17.50;72.00;;;;;;5100383;28;20190;-72
2021/04/27 07:45:55;;;;;;;2.78;2.63;;;17.60;70.50;;;;;;5098634;28;20186;-71
2021/04/27 07:48:20;;;;;;;2.92;2.30;;;17.60;71.20;;;;;;5097513;28;20181;-72
2021/04/27 07:50:46;;;;;;;2.25;2.15;;;17.60;71.00;;;;;;5099506;28;20170;-71
2021/04/27 07:53:12;;;;;;;1.77;1.77;;;17.70;70.50;;;;;;5099251;28;20201;-72
2021/04/27 07:55:37;;;;;;;5.03;2.33;;;17.80;70.50;;;;;;5094898;28;20182;-71
2021/04/27 07:58:04;;;;;;;5.18;2.15;;;17.90;69.80;;;;;;5098272;28;20184;-72
2021/04/27 08:00:29;;;;;;;2.65;2.15;;;18.00;70.00;;;;;;5098702;28;20663;-71
2021/04/27 08:02:55;;;;;;;2.20;1.95;;;18.00;68.70;;;;;;5098851;28;20266;-72
2021/04/27 08:05:22;;;;;;;2.33;2.22;;;17.90;69.30;;;;;;5079730;28;20181;-72
2021/04/27 08:07:49;;;;;;;2.10;2.00;;;18.00;69.80;;;;;;5099297;28;20194;-72
2021/04/27 08:10:15;;;;;;;2.28;2.17;;;18.10;68.90;;;;;;5099754;28;20653;-71
2021/04/27 08:12:44;;;;;;;2.30;2.20;;;18.10;68.80;;;;;;5099725;28;20196;-72
2021/04/27 08:15:13;;;;;;;1.98;1.88;;;18.00;68.10;;;;;;5096525;28;20330;-72
2021/04/27 08:17:39;;;;;;;2.40;2.20;;;18.00;68.50;;;;;;5098347;28;20630;-72
2021/04/27 08:20:08;;;;;;;4.10;2.20;;;18.00;67.80;;;;;;5097888;28;20211;-72
2021/04/27 08:22:34;;;;;;;2.47;2.10;;;18.10;68.10;;;;;;5095515;28;20194;-72
2021/04/27 08:24:59;;;;;;;3.47;2.30;;;18.20;67.90;;;;;;5099785;28;20614;-71
2021/04/27 08:27:25;;;;;;;2.55;2.17;;;18.20;67.60;;;;;;5081120;28;20214;-72
2021/04/27 08:29:54;;;;;;;1.92;1.83;;;18.20;68.00;;;;;;5095982;28;20178;-71
2021/04/27 08:32:21;;;;;;;2.58;2.45;;;18.20;68.30;;;;;;5096143;28;20185;-72
2021/04/27 08:34:47;;;;;;;2.58;2.40;;;18.40;68.60;;;;;;5098037;28;20205;-73
2021/04/27 08:37:12;;;;;;;2.13;2.13;;;18.60;67.50;;;;;;5094473;28;20197;-73
2021/04/27 08:39:38;;;;;;;2.55;2.45;;;18.80;67.30;;;;;;5099060;28;20186;-72
2021/04/27 08:42:04;;;;;;;2.28;2.13;;;19.10;66.30;;;;;;5097991;28;20186;-71
2021/04/27 08:44:30;;;;;;;2.10;2.00;;;19.10;65.90;;;;;;5099602;28;20185;-71
2021/04/27 08:46:56;;;;;;;2.60;2.03;;;19.10;66.10;;;;;;5097100;28;20209;-71
2021/04/27 08:49:22;;;;;;;2.13;2.10;;;19.20;66.40;;;;;;5101032;28;20235;-72
2021/04/27 08:51:49;;;;;;;4.80;2.78;;;19.30;66.40;;;;;;5102446;28;20185;-72
2021/04/27 08:54:16;;;;;;;7.28;3.05;;;19.50;65.70;;;;;;5102101;28;20216;-72
2021/04/27 08:56:41;;;;;;;2.35;2.15;;;19.60;65.50;;;;;;5100977;28;20698;-72
2021/04/27 08:59:07;;;;;;;2.20;2.10;;;19.70;65.10;;;;;;5102007;28;20178;-72
2021/04/27 09:01:33;;;;;;;4.15;2.40;;;19.80;64.70;;;;;;5101965;28;20261;-71
2021/04/27 09:03:59;;;;;;;2.25;2.15;;;19.70;64.80;;;;;;5099670;28;20246;-72
2021/04/27 09:06:26;;;;;;;3.40;3.08;;;19.60;64.50;;;;;;5101899;28;20189;-72
2021/04/27 09:08:53;;;;;;;2.45;2.25;;;19.60;64.70;;;;;;5099638;28;20248;-72
2021/04/27 09:11:52;;;;;;;2.47;2.35;;;19.60;64.80;;;;;;5100341;28;20250;-71
2021/04/27 09:14:22;;;;;;;2.25;2.20;;;19.70;65.40;;;;;;5027408;28;20317;-72
2021/04/27 09:16:56;;;;;;;2.80;2.70;;;19.90;64.30;;;;;;5029230;28;20188;-72
2021/04/27 09:19:48;;;;;;;3.80;2.30;;;20.10;64.30;;;;;;5026318;28;20193;-72
2021/04/27 09:22:18;;;;;;;2.67;2.53;;;20.30;64.20;;;;;;5024346;28;20200;-72
2021/04/27 09:24:51;;;;;;;2.80;2.58;;;20.30;63.20;;;;;;5029618;28;20267;-72
2021/04/27 09:27:37;;;;;;;2.30;2.25;;;20.20;63.70;;;;;;5033934;28;20192;-73
2021/04/27 09:30:28;;;;;;;2.35;2.22;;;20.20;64.00;;;;;;5029470;28;20219;-73
2021/04/27 09:33:04;;;;;;;4.72;2.17;;;20.20;64.30;;;;;;5030139;28;20200;-73
2021/04/27 09:35:40;;;;;;;3.40;2.55;;;20.20;63.90;;;;;;5009718;28;20196;-73
2021/04/27 09:38:08;;;;;;;2.47;2.38;;;20.10;63.80;;;;;;5029796;28;20188;-72
2021/04/27 09:40:53;;;;;;;2.05;1.95;;;19.90;64.70;;;;;;5029396;28;20188;-73
2021/04/27 09:43:38;;;;;;;2.05;1.95;;;19.80;63.90;;;;;;5033766;28;20183;-72
2021/04/27 09:46:08;;;;;;;2.78;1.90;;;19.70;63.90;;;;;;5028380;28;20184;-72
2021/04/27 09:48:44;;;;;;;2.72;2.55;;;19.70;64.40;;;;;;5028789;28;20193;-72
2021/04/27 09:51:13;;;;;;;1.90;1.90;;;19.60;64.40;;;;;;5072113;28;20252;-72
2021/04/27 09:53:41;;;;;;;2.50;2.40;;;19.60;64.40;;;;;;5094780;28;20699;-72
2021/04/27 09:56:08;;;;;;;3.45;2.20;;;19.60;64.00;;;;;;5092684;28;20186;-73
2021/04/27 09:58:35;;;;;;;2.30;2.13;;;19.50;64.20;;;;;;5094806;28;20836;-73
2021/04/27 10:01:01;;;;;;;3.25;2.10;;;19.50;64.80;;;;;;5097205;28;20257;-75
2021/04/27 10:03:28;;;;;;;1.73;1.63;;;19.50;64.40;;;;;;5101758;28;20181;-74
2021/04/27 10:05:54;;;;;;;1.80;1.80;;;19.70;64.30;;;;;;5097439;28;20201;-74
2021/04/27 10:08:20;;;;;;;2.15;1.95;;;19.80;64.10;;;;;;5093605;28;20190;-74
2021/04/27 10:10:48;;;;;;;3.42;2.17;;;20.00;63.80;;;;;;5095974;28;20173;-74
2021/04/27 10:13:15;;;;;;;2.83;2.63;;;20.00;63.40;;;;;;5096137;28;20230;-74
2021/04/27 10:15:41;;;;;;;2.25;2.15;;;20.00;63.30;;;;;;5091731;28;20200;-74
2021/04/27 10:18:10;;;;;;;2.35;2.15;;;20.00;63.90;;;;;;5094031;28;20677;-77
2021/04/27 10:20:37;;;;;;;2.90;2.22;;;20.00;64.00;;;;;;5098567;28;20208;-72
2021/04/27 10:23:06;;;;;;;1.80;1.77;;;20.00;63.60;;;;;;5098285;28;20204;-74
2021/04/27 10:25:33;;;;;;;4.72;2.20;;;20.00;63.90;;;;;;5099805;28;20241;-74
2021/04/27 10:28:07;;;;;;;2.20;2.10;;;20.00;63.90;;;;;;5100902;28;20483;-75
2021/04/27 10:30:40;;;;;;;2.22;2.13;;;19.90;63.50;;;;;;5101012;28;20185;-75
2021/04/27 10:33:05;;;;;;;2.10;2.00;;;19.80;63.70;;;;;;5096403;28;20207;-75
2021/04/27 10:35:35;;;;;;;2.47;1.77;;;19.80;64.30;;;;;;5096970;28;20177;-74
2021/04/27 10:38:08;;;;;;;2.47;2.38;;;19.60;63.70;;;;;;5097489;28;20205;-75
2021/04/27 10:40:58;;;;;;;2.45;2.35;;;19.50;64.10;;;;;;5094277;28;20235;-75
2021/04/27 10:43:27;;;;;;;2.13;2.08;;;19.40;64.30;;;;;;5092299;28;20178;-74
2021/04/27 10:45:56;;;;;;;2.60;2.38;;;19.30;64.50;;;;;;5090998;28;20182;-73
2021/04/27 10:48:36;;;;;;;1.80;1.75;;;19.20;64.70;;;;;;5096489;28;20189;-75
2021/04/27 10:51:25;;;;;;;2.47;2.30;;;19.10;64.80;;;;;;5096015;28;20300;-75
2021/04/27 10:54:15;;;;;;;2.10;2.00;;;19.10;65.60;;;;;;5024217;28;20255;-75
2021/04/27 10:56:46;;;;;;;2.53;2.35;;;19.10;65.30;;;;;;5026839;28;20227;-74
2021/04/27 10:59:29;;;;;;;2.75;2.20;;;19.00;64.90;;;;;;5025112;28;20251;-74
2021/04/27 11:02:25;;;;;;;2.72;2.63;;;18.90;65.60;;;;;;5028416;28;20866;-74
2021/04/27 11:05:02;;;;;;;2.25;2.08;;;18.80;66.10;;;;;;5032298;28;20676;-73
2021/04/27 11:07:27;;;;;;;2.35;2.25;;;18.70;65.70;;;;;;5033746;28;20235;-74
2021/04/27 11:10:05;;;;;;;3.00;2.50;;;18.60;66.30;;;;;;5031808;28;20257;-73
2021/04/27 11:12:42;;;;;;;2.20;2.10;;;18.60;67.30;;;;;;5031113;28;20931;-74
2021/04/27 11:15:14;;;;;;;2.28;2.17;;;18.40;67.10;;;;;;5033187;28;20282;-75
2021/04/27 11:17:56;;;;;;;2.17;2.08;;;18.20;68.60;;;;;;5029193;28;20343;-74
2021/04/27 11:20:47;;;;;;;1.85;1.83;;;18.10;68.50;;;;;;5030130;28;20278;-74
2021/04/27 11:23:35;;;;;;;2.20;2.08;;;18.10;68.40;;;;;;4971037;28;20774;-74
2021/04/27 11:26:02;;;;;;;2.08;1.10;;;18.20;69.00;;;;;;4967526;28;20185;-75
2021/04/27 11:28:50;;;;;;;1.08;0.90;;;18.20;64.60;;;;;;4966834;28;20233;-74
2021/04/27 11:31:16;;;;;;;0.88;0.88;;;18.30;64.20;;;;;;5011335;28;20196;-75
2021/04/27 11:33:42;;;;;;;0.75;0.75;;;18.20;63.90;;;;;;5040104;28;20236;-73
2021/04/27 11:36:08;;;;;;;0.82;0.82;;;18.00;63.70;;;;;;5020447;28;20188;-74
2021/04/27 11:38:33;;;;;;;0.82;0.82;;;17.90;65.30;;;;;;5036291;28;20191;-75
2021/04/27 11:40:59;;;;;;;0.85;0.85;;;17.80;64.40;;;;;;5037742;28;20286;-74
2021/04/27 11:43:25;;;;;;;0.90;0.90;;;17.80;64.40;;;;;;5037396;28;20192;-75
2021/04/27 11:45:52;;;;;;;1.52;0.90;;;17.80;66.10;;;;;;5052466;28;20192;-75
2021/04/27 11:48:22;;;;;;;1.08;1.08;;;17.80;66.10;;;;;;5033537;28;20299;-75
2021/04/27 11:50:50;;;;;;;1.25;0.93;;;17.80;65.90;;;;;;5031295;28;20187;-75
2021/04/27 11:53:18;;;;;;;1.25;1.10;;;17.80;66.20;;;;;;5032901;28;21088;-75
2021/04/27 11:55:51;;;;;;;0.85;0.85;;;17.80;66.10;;;;;;5030050;28;20231;-75
2021/04/27 11:58:19;;;;;;;0.95;0.93;;;17.90;66.50;;;;;;5034007;28;20219;-75
2021/04/27 12:00:50;;;;;;;0.80;0.80;;;18.10;65.60;;;;;;5080154;28;21230;-74
2021/04/27 12:03:32;;;;;;;1.52;1.30;;;18.10;65.90;;;;;;5097510;28;20285;-75
2021/04/27 12:06:12;;;;;;;1.95;0.90;;;18.20;65.70;;;;;;5092727;28;20185;-75
2021/04/27 12:08:49;;;;;;;4.53;1.30;;;18.10;65.30;;;;;;5096632;28;20185;-75
2021/04/27 12:11:23;;;;;;;1.10;1.10;;;18.00;65.60;;;;;;5104962;28;20182;-75
2021/04/27 12:13:49;;;;;;;2.40;1.17;;;18.00;65.10;;;;;;5099157;28;20775;-75
2021/04/27 12:16:18;;;;;;;1.67;1.02;;;18.10;65.10;;;;;;5101967;28;20194;-75
2021/04/27 12:18:57;;;;;;;1.38;1.00;;;18.10;64.80;;;;;;5102783;28;20181;-75
2021/04/27 12:21:51;;;;;;;1.65;0.82;;;18.10;64.90;;;;;;5101227;28;20339;-75
2021/04/27 12:24:19;;;;;;;1.08;1.08;;;18.10;64.50;;;;;;5095769;28;20185;-74
2021/04/27 12:27:07;;;;;;;1.10;1.05;;;18.00;64.30;;;;;;5102320;28;20173;-74
2021/04/27 12:29:40;;;;;;;1.00;0.98;;;18.00;64.40;;;;;;5101345;28;20189;-74
2021/04/27 12:32:15;;;;;;;2.35;1.00;;;18.00;64.70;;;;;;5104037;28;20310;-75
2021/04/27 12:35:02;;;;;;;1.42;1.30;;;18.10;64.50;;;;;;5102379;28;20246;-75
2021/04/27 12:37:33;;;;;;;1.30;1.30;;;18.10;65.40;;;;;;5101576;28;20177;-75
2021/04/27 12:40:00;;;;;;;3.25;1.38;;;18.20;64.60;;;;;;5101947;28;20249;-74
2021/04/27 12:42:32;;;;;;;3.30;1.13;;;18.20;64.90;;;;;;5101230;28;20651;-74
2021/04/27 12:45:00;;;;;;;1.45;1.33;;;18.20;65.20;;;;;;5099729;28;20188;-74
2021/04/27 12:47:34;;;;;;;1.85;1.15;;;18.30;64.70;;;;;;5099308;28;20186;-73
2021/04/27 12:50:09;;;;;;;2.22;1.00;;;18.20;64.20;;;;;;5101645;28;20627;-73
2021/04/27 12:52:40;;;;;;;1.00;1.00;;;18.00;64.30;;;;;;5092542;28;20185;-73
2021/04/27 12:55:12;;;;;;;1.30;1.20;;;17.80;64.40;;;;;;5099482;28;20224;-74
2021/04/27 12:57:38;;;;;;;2.47;0.90;;;17.80;64.00;;;;;;5099461;28;20178;-74